sensor_id;sensor_type;location;lat;lon;timestamp;temperature;humidity
41762;DHT22;27441;50.860;0.258;2022-08-27T00:01:51;15.60;99.90
41762;DHT22;27441;50.860;0.258;2022-08-27T00:04:17;15.50;99.90
41762;DHT22;27441;50.860;0.258;2022-08-27T00:06:43;15.50;99.90
41762;DHT22;27441;50.860;0.258;2022-08-27T00:09:08;15.50;99.90
41762;DHT22;27441;50.860;0.258;2022-08-27T00:11:34;15.50;99.90
41762;DHT22;27441;50.860;0.258;2022-08-27T00:14:01;15.50;99.90
41762;DHT22;27441;50.860;0.258;2022-08-27T00:16:27;15.50;99.90
41762;DHT22;27441;50.860;0.258;2022-08-27T00:18:54;15.40;99.90
41762;DHT22;27441;50.860;0.258;2022-08-27T00:21:20;15.50;99.90
41762;DHT22;27441;50.860;0.258;2022-08-27T00:23:46;15.50;99.90
41762;DHT22;27441;50.860;0.258;2022-08-27T00:26:13;15.60;99.90
41762;DHT22;27441;50.860;0.258;2022-08-27T00:28:40;15.50;99.90
41762;DHT22;27441;50.860;0.258;2022-08-27T00:31:07;15.40;99.90
41762;DHT22;27441;50.860;0.258;2022-08-27T00:33:33;15.30;99.90
41762;DHT22;27441;50.860;0.258;2022-08-27T00:35:59;15.20;99.90
41762;DHT22;27441;50.860;0.258;2022-08-27T00:38:26;15.30;99.90
41762;DHT22;27441;50.860;0.258;2022-08-27T00:40:52;15.20;99.90
41762;DHT22;27441;50.860;0.258;2022-08-27T00:43:29;15.20;99.90
41762;DHT22;27441;50.860;0.258;2022-08-27T00:46:04;15.20;99.90
41762;DHT22;27441;50.860;0.258;2022-08-27T00:48:33;15.20;99.90
41762;DHT22;27441;50.860;0.258;2022-08-27T00:51:00;15.20;99.90
41762;DHT22;27441;50.860;0.258;2022-08-27T00:53:30;15.10;99.90
41762;DHT22;27441;50.860;0.258;2022-08-27T00:56:25;15.20;99.90
41762;DHT22;27441;50.860;0.258;2022-08-27T00:58:53;15.10;99.90
41762;DHT22;27441;50.860;0.258;2022-08-27T01:01:28;14.90;99.90
41762;DHT22;27441;50.860;0.258;2022-08-27T01:03:57;14.90;99.90
41762;DHT22;27441;50.860;0.258;2022-08-27T01:06:27;14.90;99.90
41762;DHT22;27441;50.860;0.258;2022-08-27T01:09:03;14.90;99.90
41762;DHT22;27441;50.860;0.258;2022-08-27T01:11:30;14.90;99.90
41762;DHT22;27441;50.860;0.258;2022-08-27T01:13:56;14.90;99.90
41762;DHT22;27441;50.860;0.258;2022-08-27T01:16:25;15.00;99.90
41762;DHT22;27441;50.860;0.258;2022-08-27T01:18:52;15.00;99.90
41762;DHT22;27441;50.860;0.258;2022-08-27T01:23:56;15.00;99.90
41762;DHT22;27441;50.860;0.258;2022-08-27T01:26:24;15.10;99.90
41762;DHT22;27441;50.860;0.258;2022-08-27T01:28:50;15.10;99.90
41762;DHT22;27441;50.860;0.258;2022-08-27T01:31:17;15.00;99.90
41762;DHT22;27441;50.860;0.258;2022-08-27T01:34:01;14.90;99.90
41762;DHT22;27441;50.860;0.258;2022-08-27T01:36:27;14.90;99.90
41762;DHT22;27441;50.860;0.258;2022-08-27T01:38:53;14.80;99.90
41762;DHT22;27441;50.860;0.258;2022-08-27T01:41:20;14.80;99.90
41762;DHT22;27441;50.860;0.258;2022-08-27T01:43:47;14.80;99.90
41762;DHT22;27441;50.860;0.258;2022-08-27T01:46:13;14.80;99.90
41762;DHT22;27441;50.860;0.258;2022-08-27T01:48:39;14.80;99.90
41762;DHT22;27441;50.860;0.258;2022-08-27T01:51:05;14.70;99.90
41762;DHT22;27441;50.860;0.258;2022-08-27T01:53:31;14.70;99.90
41762;DHT22;27441;50.860;0.258;2022-08-27T01:55:57;14.60;99.90
41762;DHT22;27441;50.860;0.258;2022-08-27T01:58:27;14.60;99.90
41762;DHT22;27441;50.860;0.258;2022-08-27T02:00:56;14.60;99.90
41762;DHT22;27441;50.860;0.258;2022-08-27T02:03:24;14.60;99.90
41762;DHT22;27441;50.860;0.258;2022-08-27T02:05:51;14.70;99.90
41762;DHT22;27441;50.860;0.258;2022-08-27T02:08:17;14.70;99.90
41762;DHT22;27441;50.860;0.258;2022-08-27T02:10:44;14.80;99.90
41762;DHT22;27441;50.860;0.258;2022-08-27T02:13:11;14.70;99.90
41762;DHT22;27441;50.860;0.258;2022-08-27T02:15:38;14.60;99.90
41762;DHT22;27441;50.860;0.258;2022-08-27T02:18:06;14.50;99.90
41762;DHT22;27441;50.860;0.258;2022-08-27T02:20:33;14.50;99.90
41762;DHT22;27441;50.860;0.258;2022-08-27T02:23:00;14.50;99.90
41762;DHT22;27441;50.860;0.258;2022-08-27T02:25:26;14.50;99.90
41762;DHT22;27441;50.860;0.258;2022-08-27T02:27:53;14.50;99.90
41762;DHT22;27441;50.860;0.258;2022-08-27T02:30:22;14.50;99.90
41762;DHT22;27441;50.860;0.258;2022-08-27T02:32:49;14.40;99.90
41762;DHT22;27441;50.860;0.258;2022-08-27T02:35:21;14.50;99.90
41762;DHT22;27441;50.860;0.258;2022-08-27T02:37:48;14.50;99.90
41762;DHT22;27441;50.860;0.258;2022-08-27T02:40:16;14.50;99.90
41762;DHT22;27441;50.860;0.258;2022-08-27T02:42:43;14.50;99.90
41762;DHT22;27441;50.860;0.258;2022-08-27T02:45:10;14.50;99.90
41762;DHT22;27441;50.860;0.258;2022-08-27T02:47:36;14.50;99.90
41762;DHT22;27441;50.860;0.258;2022-08-27T02:50:02;14.50;99.90
41762;DHT22;27441;50.860;0.258;2022-08-27T02:52:28;14.50;99.90
41762;DHT22;27441;50.860;0.258;2022-08-27T02:54:55;14.40;99.90
41762;DHT22;27441;50.860;0.258;2022-08-27T02:57:22;14.40;99.90
41762;DHT22;27441;50.860;0.258;2022-08-27T02:59:48;14.40;99.90
41762;DHT22;27441;50.860;0.258;2022-08-27T03:02:14;14.40;99.90
41762;DHT22;27441;50.860;0.258;2022-08-27T03:04:40;14.30;99.90
41762;DHT22;27441;50.860;0.258;2022-08-27T03:07:06;14.40;99.90
41762;DHT22;27441;50.860;0.258;2022-08-27T03:09:32;14.30;99.90
41762;DHT22;27441;50.860;0.258;2022-08-27T03:11:59;14.30;99.90
41762;DHT22;27441;50.860;0.258;2022-08-27T03:14:25;14.20;99.90
41762;DHT22;27441;50.860;0.258;2022-08-27T03:16:50;14.20;99.90
41762;DHT22;27441;50.860;0.258;2022-08-27T03:19:16;14.20;99.90
41762;DHT22;27441;50.860;0.258;2022-08-27T03:21:42;14.20;99.90
41762;DHT22;27441;50.860;0.258;2022-08-27T03:24:09;14.20;99.90
41762;DHT22;27441;50.860;0.258;2022-08-27T03:26:34;14.20;99.90
41762;DHT22;27441;50.860;0.258;2022-08-27T03:29:00;14.20;99.90
41762;DHT22;27441;50.860;0.258;2022-08-27T03:31:27;14.10;99.90
41762;DHT22;27441;50.860;0.258;2022-08-27T03:34:00;14.10;99.90
41762;DHT22;27441;50.860;0.258;2022-08-27T03:36:27;14.10;99.90
41762;DHT22;27441;50.860;0.258;2022-08-27T03:38:55;14.10;99.90
41762;DHT22;27441;50.860;0.258;2022-08-27T03:41:21;14.00;99.90
41762;DHT22;27441;50.860;0.258;2022-08-27T03:43:47;14.00;99.90
41762;DHT22;27441;50.860;0.258;2022-08-27T03:46:14;14.10;99.90
41762;DHT22;27441;50.860;0.258;2022-08-27T03:48:40;14.10;99.90
41762;DHT22;27441;50.860;0.258;2022-08-27T03:51:08;14.10;99.90
41762;DHT22;27441;50.860;0.258;2022-08-27T03:53:36;14.10;99.90
41762;DHT22;27441;50.860;0.258;2022-08-27T03:56:03;14.00;99.90
41762;DHT22;27441;50.860;0.258;2022-08-27T03:58:31;14.00;99.90
41762;DHT22;27441;50.860;0.258;2022-08-27T04:00:56;14.00;99.90
41762;DHT22;27441;50.860;0.258;2022-08-27T04:03:23;14.00;99.90
41762;DHT22;27441;50.860;0.258;2022-08-27T04:05:53;14.00;99.90
41762;DHT22;27441;50.860;0.258;2022-08-27T04:08:19;14.00;99.90
41762;DHT22;27441;50.860;0.258;2022-08-27T04:10:46;13.90;99.90
41762;DHT22;27441;50.860;0.258;2022-08-27T04:13:12;14.00;99.90
41762;DHT22;27441;50.860;0.258;2022-08-27T04:15:42;14.00;99.90
41762;DHT22;27441;50.860;0.258;2022-08-27T04:18:09;14.00;99.90
41762;DHT22;27441;50.860;0.258;2022-08-27T04:20:34;14.00;99.90
41762;DHT22;27441;50.860;0.258;2022-08-27T04:23:00;14.00;99.90
41762;DHT22;27441;50.860;0.258;2022-08-27T04:25:26;13.90;99.90
41762;DHT22;27441;50.860;0.258;2022-08-27T04:27:52;13.90;99.90
41762;DHT22;27441;50.860;0.258;2022-08-27T04:30:18;13.90;99.90
41762;DHT22;27441;50.860;0.258;2022-08-27T04:32:44;13.80;99.90
41762;DHT22;27441;50.860;0.258;2022-08-27T04:35:10;13.80;99.90
41762;DHT22;27441;50.860;0.258;2022-08-27T04:37:36;13.70;99.90
41762;DHT22;27441;50.860;0.258;2022-08-27T04:40:02;13.80;99.90
41762;DHT22;27441;50.860;0.258;2022-08-27T04:42:28;13.90;99.90
41762;DHT22;27441;50.860;0.258;2022-08-27T04:44:54;14.00;99.90
41762;DHT22;27441;50.860;0.258;2022-08-27T04:47:19;13.90;99.90
41762;DHT22;27441;50.860;0.258;2022-08-27T04:49:45;13.90;99.90
41762;DHT22;27441;50.860;0.258;2022-08-27T04:52:11;13.80;99.90
41762;DHT22;27441;50.860;0.258;2022-08-27T04:54:38;13.70;99.90
41762;DHT22;27441;50.860;0.258;2022-08-27T04:57:05;13.70;99.90
41762;DHT22;27441;50.860;0.258;2022-08-27T04:59:32;13.70;99.90
41762;DHT22;27441;50.860;0.258;2022-08-27T05:02:00;13.70;99.90
41762;DHT22;27441;50.860;0.258;2022-08-27T05:04:27;13.70;99.90
41762;DHT22;27441;50.860;0.258;2022-08-27T05:06:55;13.70;99.90
41762;DHT22;27441;50.860;0.258;2022-08-27T05:09:21;13.60;99.90
41762;DHT22;27441;50.860;0.258;2022-08-27T05:11:47;13.60;99.90
41762;DHT22;27441;50.860;0.258;2022-08-27T05:14:14;13.70;99.90
41762;DHT22;27441;50.860;0.258;2022-08-27T05:16:40;13.70;99.90
41762;DHT22;27441;50.860;0.258;2022-08-27T05:19:10;13.70;99.90
41762;DHT22;27441;50.860;0.258;2022-08-27T05:21:42;13.70;99.90
41762;DHT22;27441;50.860;0.258;2022-08-27T05:24:09;13.70;99.90
41762;DHT22;27441;50.860;0.258;2022-08-27T05:26:36;13.70;99.90
41762;DHT22;27441;50.860;0.258;2022-08-27T05:29:03;13.70;99.90
41762;DHT22;27441;50.860;0.258;2022-08-27T05:31:30;13.80;99.90
41762;DHT22;27441;50.860;0.258;2022-08-27T05:33:56;13.70;99.90
41762;DHT22;27441;50.860;0.258;2022-08-27T05:36:28;13.70;99.90
41762;DHT22;27441;50.860;0.258;2022-08-27T05:38:55;13.80;99.90
41762;DHT22;27441;50.860;0.258;2022-08-27T05:41:24;13.80;99.90
41762;DHT22;27441;50.860;0.258;2022-08-27T05:43:53;13.80;99.90
41762;DHT22;27441;50.860;0.258;2022-08-27T05:46:21;13.80;99.90
41762;DHT22;27441;50.860;0.258;2022-08-27T05:48:48;13.80;99.90
41762;DHT22;27441;50.860;0.258;2022-08-27T05:53:43;13.90;99.90
41762;DHT22;27441;50.860;0.258;2022-08-27T05:56:20;13.90;99.90
41762;DHT22;27441;50.860;0.258;2022-08-27T05:58:47;14.00;99.90
41762;DHT22;27441;50.860;0.258;2022-08-27T06:01:34;14.00;99.90
41762;DHT22;27441;50.860;0.258;2022-08-27T06:04:01;14.00;99.90
41762;DHT22;27441;50.860;0.258;2022-08-27T06:06:27;14.10;99.90
41762;DHT22;27441;50.860;0.258;2022-08-27T06:08:53;14.10;99.90
41762;DHT22;27441;50.860;0.258;2022-08-27T06:11:19;14.10;99.90
41762;DHT22;27441;50.860;0.258;2022-08-27T06:13:46;14.20;99.90
41762;DHT22;27441;50.860;0.258;2022-08-27T06:16:14;14.20;99.90
41762;DHT22;27441;50.860;0.258;2022-08-27T06:18:43;14.30;99.90
41762;DHT22;27441;50.860;0.258;2022-08-27T06:21:09;14.30;99.90
41762;DHT22;27441;50.860;0.258;2022-08-27T06:23:36;14.30;99.90
41762;DHT22;27441;50.860;0.258;2022-08-27T06:26:05;14.50;99.90
41762;DHT22;27441;50.860;0.258;2022-08-27T06:28:32;14.50;99.90
41762;DHT22;27441;50.860;0.258;2022-08-27T06:31:15;14.50;99.90
41762;DHT22;27441;50.860;0.258;2022-08-27T06:33:43;14.60;99.90
41762;DHT22;27441;50.860;0.258;2022-08-27T06:36:12;14.60;99.90
41762;DHT22;27441;50.860;0.258;2022-08-27T06:38:38;14.70;99.90
41762;DHT22;27441;50.860;0.258;2022-08-27T06:41:05;14.70;99.90
41762;DHT22;27441;50.860;0.258;2022-08-27T06:43:34;14.70;99.90
41762;DHT22;27441;50.860;0.258;2022-08-27T06:46:02;14.70;99.90
41762;DHT22;27441;50.860;0.258;2022-08-27T06:48:28;14.70;99.90
41762;DHT22;27441;50.860;0.258;2022-08-27T06:50:54;14.80;99.90
41762;DHT22;27441;50.860;0.258;2022-08-27T06:53:20;14.80;99.90
41762;DHT22;27441;50.860;0.258;2022-08-27T06:55:47;14.90;99.90
41762;DHT22;27441;50.860;0.258;2022-08-27T06:58:14;15.00;99.90
41762;DHT22;27441;50.860;0.258;2022-08-27T07:00:41;15.10;99.90
41762;DHT22;27441;50.860;0.258;2022-08-27T07:03:09;15.20;99.90
41762;DHT22;27441;50.860;0.258;2022-08-27T07:05:38;15.30;99.90
41762;DHT22;27441;50.860;0.258;2022-08-27T07:08:05;15.40;99.90
41762;DHT22;27441;50.860;0.258;2022-08-27T07:10:32;15.50;99.90
41762;DHT22;27441;50.860;0.258;2022-08-27T07:12:59;15.60;99.90
41762;DHT22;27441;50.860;0.258;2022-08-27T07:15:25;15.70;99.90
41762;DHT22;27441;50.860;0.258;2022-08-27T07:17:51;15.80;99.90
41762;DHT22;27441;50.860;0.258;2022-08-27T07:20:18;15.90;99.90
41762;DHT22;27441;50.860;0.258;2022-08-27T07:22:45;16.00;99.90
41762;DHT22;27441;50.860;0.258;2022-08-27T07:25:15;16.10;99.90
41762;DHT22;27441;50.860;0.258;2022-08-27T07:27:47;16.20;99.90
41762;DHT22;27441;50.860;0.258;2022-08-27T07:30:14;16.40;99.90
41762;DHT22;27441;50.860;0.258;2022-08-27T07:32:43;16.60;99.90
41762;DHT22;27441;50.860;0.258;2022-08-27T07:35:09;16.70;99.90
41762;DHT22;27441;50.860;0.258;2022-08-27T07:37:39;16.80;99.90
41762;DHT22;27441;50.860;0.258;2022-08-27T07:40:08;16.90;99.90
41762;DHT22;27441;50.860;0.258;2022-08-27T07:42:35;16.90;99.90
41762;DHT22;27441;50.860;0.258;2022-08-27T07:45:19;17.10;99.90
41762;DHT22;27441;50.860;0.258;2022-08-27T07:47:45;17.10;99.90
41762;DHT22;27441;50.860;0.258;2022-08-27T07:50:12;17.20;99.90
41762;DHT22;27441;50.860;0.258;2022-08-27T07:52:39;17.30;99.90
41762;DHT22;27441;50.860;0.258;2022-08-27T07:55:06;17.40;99.90
41762;DHT22;27441;50.860;0.258;2022-08-27T07:57:32;17.50;99.90
41762;DHT22;27441;50.860;0.258;2022-08-27T07:59:57;17.60;99.90
41762;DHT22;27441;50.860;0.258;2022-08-27T08:02:24;17.70;99.90
41762;DHT22;27441;50.860;0.258;2022-08-27T08:04:49;17.80;99.90
41762;DHT22;27441;50.860;0.258;2022-08-27T08:07:16;17.90;99.90
41762;DHT22;27441;50.860;0.258;2022-08-27T08:09:41;18.00;99.90
41762;DHT22;27441;50.860;0.258;2022-08-27T08:12:07;18.20;99.90
41762;DHT22;27441;50.860;0.258;2022-08-27T08:14:33;18.40;99.90
41762;DHT22;27441;50.860;0.258;2022-08-27T08:17:00;18.40;99.90
41762;DHT22;27441;50.860;0.258;2022-08-27T08:19:27;18.60;99.90
41762;DHT22;27441;50.860;0.258;2022-08-27T08:21:53;18.70;99.90
41762;DHT22;27441;50.860;0.258;2022-08-27T08:24:19;18.80;99.90
41762;DHT22;27441;50.860;0.258;2022-08-27T08:26:45;19.00;99.90
41762;DHT22;27441;50.860;0.258;2022-08-27T08:29:11;19.20;99.90
41762;DHT22;27441;50.860;0.258;2022-08-27T08:31:39;19.30;99.90
41762;DHT22;27441;50.860;0.258;2022-08-27T08:34:05;19.40;99.90
41762;DHT22;27441;50.860;0.258;2022-08-27T08:36:31;19.50;99.90
41762;DHT22;27441;50.860;0.258;2022-08-27T08:38:57;19.50;99.90
41762;DHT22;27441;50.860;0.258;2022-08-27T08:41:49;19.70;99.90
41762;DHT22;27441;50.860;0.258;2022-08-27T08:50:05;20.60;99.90
41762;DHT22;27441;50.860;0.258;2022-08-27T08:52:59;20.90;99.90
41762;DHT22;27441;50.860;0.258;2022-08-27T08:55:56;21.30;99.90
41762;DHT22;27441;50.860;0.258;2022-08-27T08:58:42;21.60;99.90
41762;DHT22;27441;50.860;0.258;2022-08-27T09:01:10;21.80;99.90
41762;DHT22;27441;50.860;0.258;2022-08-27T09:03:38;21.90;99.90
41762;DHT22;27441;50.860;0.258;2022-08-27T09:06:17;22.10;99.90
41762;DHT22;27441;50.860;0.258;2022-08-27T09:08:44;22.20;99.90
41762;DHT22;27441;50.860;0.258;2022-08-27T09:11:20;22.60;99.90
41762;DHT22;27441;50.860;0.258;2022-08-27T09:13:56;22.80;99.90
41762;DHT22;27441;50.860;0.258;2022-08-27T09:16:23;23.00;99.90
41762;DHT22;27441;50.860;0.258;2022-08-27T09:18:49;23.20;99.90
41762;DHT22;27441;50.860;0.258;2022-08-27T09:24:22;23.80;99.90
41762;DHT22;27441;50.860;0.258;2022-08-27T09:26:51;24.00;99.90
41762;DHT22;27441;50.860;0.258;2022-08-27T09:29:17;24.20;99.90
41762;DHT22;27441;50.860;0.258;2022-08-27T09:31:57;24.40;99.90
41762;DHT22;27441;50.860;0.258;2022-08-27T09:34:25;24.60;99.90
41762;DHT22;27441;50.860;0.258;2022-08-27T09:42:23;25.40;99.90
41762;DHT22;27441;50.860;0.258;2022-08-27T09:44:52;25.70;99.90
41762;DHT22;27441;50.860;0.258;2022-08-27T09:47:18;25.70;99.90
41762;DHT22;27441;50.860;0.258;2022-08-27T09:49:44;25.70;99.90
41762;DHT22;27441;50.860;0.258;2022-08-27T09:52:26;25.80;99.90
41762;DHT22;27441;50.860;0.258;2022-08-27T09:54:54;26.00;99.90
41762;DHT22;27441;50.860;0.258;2022-08-27T09:57:40;25.90;99.90
41762;DHT22;27441;50.860;0.258;2022-08-27T10:00:13;25.60;99.90
41762;DHT22;27441;50.860;0.258;2022-08-27T10:02:49;25.40;99.90
41762;DHT22;27441;50.860;0.258;2022-08-27T10:05:31;25.30;99.90
41762;DHT22;27441;50.860;0.258;2022-08-27T10:08:22;25.40;99.90
41762;DHT22;27441;50.860;0.258;2022-08-27T10:10:56;26.00;99.90
41762;DHT22;27441;50.860;0.258;2022-08-27T10:21:25;25.70;99.90
41762;DHT22;27441;50.860;0.258;2022-08-27T10:26:49;26.60;99.90
41762;DHT22;27441;50.860;0.258;2022-08-27T10:32:03;26.30;99.90
41762;DHT22;27441;50.860;0.258;2022-08-27T10:34:42;25.60;99.90
41762;DHT22;27441;50.860;0.258;2022-08-27T10:37:33;24.80;99.90
41762;DHT22;27441;50.860;0.258;2022-08-27T10:43:08;23.40;99.90
41762;DHT22;27441;50.860;0.258;2022-08-27T10:48:38;22.50;99.90
41762;DHT22;27441;50.860;0.258;2022-08-27T10:56:13;21.80;99.90
41762;DHT22;27441;50.860;0.258;2022-08-27T10:58:52;21.80;99.90
41762;DHT22;27441;50.860;0.258;2022-08-27T11:04:23;21.60;99.90
41762;DHT22;27441;50.860;0.258;2022-08-27T11:07:02;21.50;99.90
41762;DHT22;27441;50.860;0.258;2022-08-27T11:12:09;21.50;99.90
41762;DHT22;27441;50.860;0.258;2022-08-27T11:14:40;21.40;99.90
41762;DHT22;27441;50.860;0.258;2022-08-27T11:17:34;21.40;99.90
41762;DHT22;27441;50.860;0.258;2022-08-27T11:22:38;21.40;99.90
41762;DHT22;27441;50.860;0.258;2022-08-27T11:27:53;21.40;99.90
41762;DHT22;27441;50.860;0.258;2022-08-27T11:33:11;21.40;99.90
41762;DHT22;27441;50.860;0.258;2022-08-27T11:38:35;21.60;99.90
41762;DHT22;27441;50.860;0.258;2022-08-27T11:41:21;21.70;99.90
41762;DHT22;27441;50.860;0.258;2022-08-27T11:43:51;21.70;99.90
41762;DHT22;27441;50.860;0.258;2022-08-27T11:46:23;22.40;99.90
41762;DHT22;27441;50.860;0.258;2022-08-27T11:49:01;22.80;99.90
41762;DHT22;27441;50.860;0.258;2022-08-27T11:51:37;23.40;99.90
41762;DHT22;27441;50.860;0.258;2022-08-27T11:54:07;24.30;99.90
41762;DHT22;27441;50.860;0.258;2022-08-27T11:56:40;25.00;99.90
41762;DHT22;27441;50.860;0.258;2022-08-27T12:01:48;25.70;99.90
41762;DHT22;27441;50.860;0.258;2022-08-27T12:04:33;25.80;99.90
41762;DHT22;27441;50.860;0.258;2022-08-27T12:15:09;22.70;99.90
41762;DHT22;27441;50.860;0.258;2022-08-27T12:20:57;22.00;99.90
41762;DHT22;27441;50.860;0.258;2022-08-27T12:23:59;21.70;99.90
41762;DHT22;27441;50.860;0.258;2022-08-27T12:26:31;21.40;99.90
41762;DHT22;27441;50.860;0.258;2022-08-27T12:31:52;21.30;99.90
41762;DHT22;27441;50.860;0.258;2022-08-27T12:34:24;21.20;99.90
41762;DHT22;27441;50.860;0.258;2022-08-27T12:36:52;21.30;99.90
41762;DHT22;27441;50.860;0.258;2022-08-27T12:39:31;21.30;99.90
41762;DHT22;27441;50.860;0.258;2022-08-27T12:42:00;21.20;99.90
41762;DHT22;27441;50.860;0.258;2022-08-27T12:44:29;21.40;99.90
41762;DHT22;27441;50.860;0.258;2022-08-27T12:47:08;21.60;99.90
41762;DHT22;27441;50.860;0.258;2022-08-27T12:52:18;22.20;99.90
41762;DHT22;27441;50.860;0.258;2022-08-27T13:04:51;22.90;99.90
41762;DHT22;27441;50.860;0.258;2022-08-27T13:07:31;22.80;99.90
41762;DHT22;27441;50.860;0.258;2022-08-27T13:10:11;22.40;99.90
41762;DHT22;27441;50.860;0.258;2022-08-27T13:12:40;22.10;99.90
41762;DHT22;27441;50.860;0.258;2022-08-27T13:15:07;22.00;99.90
41762;DHT22;27441;50.860;0.258;2022-08-27T13:17:43;21.80;99.90
41762;DHT22;27441;50.860;0.258;2022-08-27T13:20:15;21.70;99.90
41762;DHT22;27441;50.860;0.258;2022-08-27T13:22:42;21.60;99.90
41762;DHT22;27441;50.860;0.258;2022-08-27T13:25:30;21.60;99.90
41762;DHT22;27441;50.860;0.258;2022-08-27T13:28:14;21.60;99.90
41762;DHT22;27441;50.860;0.258;2022-08-27T13:30:45;21.60;99.90
41762;DHT22;27441;50.860;0.258;2022-08-27T13:33:23;21.40;99.90
41762;DHT22;27441;50.860;0.258;2022-08-27T13:35:52;21.40;99.90
41762;DHT22;27441;50.860;0.258;2022-08-27T13:38:20;21.50;99.90
41762;DHT22;27441;50.860;0.258;2022-08-27T13:40:57;21.50;99.90
41762;DHT22;27441;50.860;0.258;2022-08-27T13:43:42;21.40;99.90
41762;DHT22;27441;50.860;0.258;2022-08-27T13:46:15;21.30;99.90
41762;DHT22;27441;50.860;0.258;2022-08-27T13:48:43;21.20;99.90
41762;DHT22;27441;50.860;0.258;2022-08-27T13:51:10;21.20;99.90
41762;DHT22;27441;50.860;0.258;2022-08-27T13:53:45;21.20;99.90
41762;DHT22;27441;50.860;0.258;2022-08-27T13:56:53;21.20;99.90
41762;DHT22;27441;50.860;0.258;2022-08-27T14:07:10;21.00;99.90
41762;DHT22;27441;50.860;0.258;2022-08-27T14:09:49;20.90;99.90
41762;DHT22;27441;50.860;0.258;2022-08-27T14:12:37;20.80;99.90
41762;DHT22;27441;50.860;0.258;2022-08-27T14:15:23;20.70;99.90
41762;DHT22;27441;50.860;0.258;2022-08-27T14:17:49;20.90;99.90
41762;DHT22;27441;50.860;0.258;2022-08-27T14:20:17;21.30;99.90
41762;DHT22;27441;50.860;0.258;2022-08-27T14:22:43;21.40;99.90
41762;DHT22;27441;50.860;0.258;2022-08-27T14:25:10;21.40;99.90
41762;DHT22;27441;50.860;0.258;2022-08-27T14:27:37;21.50;99.90
41762;DHT22;27441;50.860;0.258;2022-08-27T14:30:07;21.50;99.90
41762;DHT22;27441;50.860;0.258;2022-08-27T14:32:33;21.70;99.90
41762;DHT22;27441;50.860;0.258;2022-08-27T14:35:00;21.80;99.90
41762;DHT22;27441;50.860;0.258;2022-08-27T14:37:26;21.90;99.90
41762;DHT22;27441;50.860;0.258;2022-08-27T14:39:52;22.10;99.90
41762;DHT22;27441;50.860;0.258;2022-08-27T14:42:18;22.00;99.90
41762;DHT22;27441;50.860;0.258;2022-08-27T14:44:44;21.90;99.90
41762;DHT22;27441;50.860;0.258;2022-08-27T14:47:10;21.80;99.90
41762;DHT22;27441;50.860;0.258;2022-08-27T14:49:43;21.70;99.90
41762;DHT22;27441;50.860;0.258;2022-08-27T14:52:11;21.60;99.90
41762;DHT22;27441;50.860;0.258;2022-08-27T14:54:38;21.60;99.90
41762;DHT22;27441;50.860;0.258;2022-08-27T14:57:05;21.50;99.90
41762;DHT22;27441;50.860;0.258;2022-08-27T14:59:32;21.40;99.90
41762;DHT22;27441;50.860;0.258;2022-08-27T15:02:00;21.30;99.90
41762;DHT22;27441;50.860;0.258;2022-08-27T15:04:28;21.20;99.90
41762;DHT22;27441;50.860;0.258;2022-08-27T15:06:54;21.20;99.90
41762;DHT22;27441;50.860;0.258;2022-08-27T15:09:20;21.10;99.90
41762;DHT22;27441;50.860;0.258;2022-08-27T15:11:46;21.00;99.90
41762;DHT22;27441;50.860;0.258;2022-08-27T15:14:33;20.80;99.90
41762;DHT22;27441;50.860;0.258;2022-08-27T15:17:00;20.70;99.90
41762;DHT22;27441;50.860;0.258;2022-08-27T15:19:27;20.50;99.90
41762;DHT22;27441;50.860;0.258;2022-08-27T15:22:00;20.40;99.90
41762;DHT22;27441;50.860;0.258;2022-08-27T15:24:36;20.40;99.90
41762;DHT22;27441;50.860;0.258;2022-08-27T15:27:03;20.30;99.90
41762;DHT22;27441;50.860;0.258;2022-08-27T15:29:29;20.30;99.90
41762;DHT22;27441;50.860;0.258;2022-08-27T15:31:55;20.30;99.90
41762;DHT22;27441;50.860;0.258;2022-08-27T15:34:21;20.40;99.90
41762;DHT22;27441;50.860;0.258;2022-08-27T15:36:47;20.60;99.90
41762;DHT22;27441;50.860;0.258;2022-08-27T15:39:13;20.70;99.90
41762;DHT22;27441;50.860;0.258;2022-08-27T15:41:39;20.80;99.90
41762;DHT22;27441;50.860;0.258;2022-08-27T15:44:06;20.90;99.90
41762;DHT22;27441;50.860;0.258;2022-08-27T15:46:32;20.90;99.90
41762;DHT22;27441;50.860;0.258;2022-08-27T15:48:58;20.80;99.90
41762;DHT22;27441;50.860;0.258;2022-08-27T15:51:32;20.70;99.90
41762;DHT22;27441;50.860;0.258;2022-08-27T15:53:59;20.50;99.90
41762;DHT22;27441;50.860;0.258;2022-08-27T15:56:26;20.40;99.90
41762;DHT22;27441;50.860;0.258;2022-08-27T15:58:52;20.40;99.90
41762;DHT22;27441;50.860;0.258;2022-08-27T16:01:26;20.40;99.90
41762;DHT22;27441;50.860;0.258;2022-08-27T16:03:52;20.50;99.90
41762;DHT22;27441;50.860;0.258;2022-08-27T16:06:18;20.60;99.90
41762;DHT22;27441;50.860;0.258;2022-08-27T16:08:44;20.60;99.90
41762;DHT22;27441;50.860;0.258;2022-08-27T16:11:13;20.70;99.90
41762;DHT22;27441;50.860;0.258;2022-08-27T16:13:39;20.70;99.90
41762;DHT22;27441;50.860;0.258;2022-08-27T16:16:05;20.80;99.90
41762;DHT22;27441;50.860;0.258;2022-08-27T16:18:33;20.90;99.90
41762;DHT22;27441;50.860;0.258;2022-08-27T16:21:00;20.90;99.90
41762;DHT22;27441;50.860;0.258;2022-08-27T16:23:28;20.80;99.90
41762;DHT22;27441;50.860;0.258;2022-08-27T16:25:54;20.80;99.90
41762;DHT22;27441;50.860;0.258;2022-08-27T16:28:21;20.80;99.90
41762;DHT22;27441;50.860;0.258;2022-08-27T16:30:47;20.80;99.90
41762;DHT22;27441;50.860;0.258;2022-08-27T16:33:13;20.70;99.90
41762;DHT22;27441;50.860;0.258;2022-08-27T16:35:39;20.70;99.90
41762;DHT22;27441;50.860;0.258;2022-08-27T16:38:05;20.60;99.90
41762;DHT22;27441;50.860;0.258;2022-08-27T16:40:32;20.50;99.90
41762;DHT22;27441;50.860;0.258;2022-08-27T16:42:59;20.40;99.90
41762;DHT22;27441;50.860;0.258;2022-08-27T16:45:26;20.50;99.90
41762;DHT22;27441;50.860;0.258;2022-08-27T16:47:52;20.50;99.90
41762;DHT22;27441;50.860;0.258;2022-08-27T16:50:37;20.40;99.90
41762;DHT22;27441;50.860;0.258;2022-08-27T16:53:08;20.40;99.90
41762;DHT22;27441;50.860;0.258;2022-08-27T16:55:36;20.30;99.90
41762;DHT22;27441;50.860;0.258;2022-08-27T16:58:14;20.20;99.90
41762;DHT22;27441;50.860;0.258;2022-08-27T17:00:42;20.20;99.90
41762;DHT22;27441;50.860;0.258;2022-08-27T17:03:08;20.20;99.90
41762;DHT22;27441;50.860;0.258;2022-08-27T17:05:34;20.10;99.90
41762;DHT22;27441;50.860;0.258;2022-08-27T17:08:00;20.00;99.90
41762;DHT22;27441;50.860;0.258;2022-08-27T17:10:35;19.90;99.90
41762;DHT22;27441;50.860;0.258;2022-08-27T17:13:02;19.80;99.90
41762;DHT22;27441;50.860;0.258;2022-08-27T17:15:28;19.80;99.90
41762;DHT22;27441;50.860;0.258;2022-08-27T17:17:55;19.90;99.90
41762;DHT22;27441;50.860;0.258;2022-08-27T17:20:23;19.90;99.90
41762;DHT22;27441;50.860;0.258;2022-08-27T17:22:49;19.90;99.90